sensor_id;sensor_type;location;lat;lon;timestamp;temperature;humidity
54898;DHT22;40800;52.704;6.398;2023-05-29T00:02:07;9.90;99.90
54898;DHT22;40800;52.704;6.398;2023-05-29T00:04:32;9.80;99.90
54898;DHT22;40800;52.704;6.398;2023-05-29T00:06:58;9.90;99.90
54898;DHT22;40800;52.704;6.398;2023-05-29T00:09:24;9.90;99.90
54898;DHT22;40800;52.704;6.398;2023-05-29T00:11:50;9.80;99.90
54898;DHT22;40800;52.704;6.398;2023-05-29T00:14:20;9.70;99.90
54898;DHT22;40800;52.704;6.398;2023-05-29T00:16:48;9.70;99.90
54898;DHT22;40800;52.704;6.398;2023-05-29T00:19:14;9.60;99.90
54898;DHT22;40800;52.704;6.398;2023-05-29T00:21:42;9.70;1.00
54898;DHT22;40800;52.704;6.398;2023-05-29T00:24:08;9.70;1.00
54898;DHT22;40800;52.704;6.398;2023-05-29T00:26:34;9.70;1.00
54898;DHT22;40800;52.704;6.398;2023-05-29T00:28:59;9.60;1.00
54898;DHT22;40800;52.704;6.398;2023-05-29T00:31:25;9.50;1.00
54898;DHT22;40800;52.704;6.398;2023-05-29T00:33:50;9.50;1.00
54898;DHT22;40800;52.704;6.398;2023-05-29T00:36:16;9.40;1.00
54898;DHT22;40800;52.704;6.398;2023-05-29T00:38:42;9.40;1.00
54898;DHT22;40800;52.704;6.398;2023-05-29T00:41:12;9.40;1.00
54898;DHT22;40800;52.704;6.398;2023-05-29T00:43:38;9.30;1.00
54898;DHT22;40800;52.704;6.398;2023-05-29T00:46:04;9.30;1.00
54898;DHT22;40800;52.704;6.398;2023-05-29T00:48:29;9.30;1.00
54898;DHT22;40800;52.704;6.398;2023-05-29T00:50:55;9.20;1.00
54898;DHT22;40800;52.704;6.398;2023-05-29T00:53:21;9.20;1.00
54898;DHT22;40800;52.704;6.398;2023-05-29T00:55:48;9.20;1.00
54898;DHT22;40800;52.704;6.398;2023-05-29T00:58:14;9.20;9.40
54898;DHT22;40800;52.704;6.398;2023-05-29T01:00:40;9.20;8.60
54898;DHT22;40800;52.704;6.398;2023-05-29T01:03:06;9.20;22.90
54898;DHT22;40800;52.704;6.398;2023-05-29T01:05:34;9.20;51.40
54898;DHT22;40800;52.704;6.398;2023-05-29T01:08:02;9.10;49.40
54898;DHT22;40800;52.704;6.398;2023-05-29T01:10:28;9.10;72.70
54898;DHT22;40800;52.704;6.398;2023-05-29T01:12:59;9.10;50.20
54898;DHT22;40800;52.704;6.398;2023-05-29T01:15:46;9.10;39.20
54898;DHT22;40800;52.704;6.398;2023-05-29T01:24:13;9.00;96.30
54898;DHT22;40800;52.704;6.398;2023-05-29T01:26:47;8.90;99.90
54898;DHT22;40800;52.704;6.398;2023-05-29T01:29:21;8.90;97.50
54898;DHT22;40800;52.704;6.398;2023-05-29T01:31:48;8.90;99.90
54898;DHT22;40800;52.704;6.398;2023-05-29T01:34:15;8.80;99.90
54898;DHT22;40800;52.704;6.398;2023-05-29T01:36:40;8.80;99.90
54898;DHT22;40800;52.704;6.398;2023-05-29T01:39:07;8.80;99.90
54898;DHT22;40800;52.704;6.398;2023-05-29T01:41:33;8.80;99.90
54898;DHT22;40800;52.704;6.398;2023-05-29T01:44:01;8.80;99.90
54898;DHT22;40800;52.704;6.398;2023-05-29T01:46:28;8.80;99.90
54898;DHT22;40800;52.704;6.398;2023-05-29T01:48:54;8.80;99.90
54898;DHT22;40800;52.704;6.398;2023-05-29T01:51:22;8.80;99.90
54898;DHT22;40800;52.704;6.398;2023-05-29T01:53:48;8.70;99.90
54898;DHT22;40800;52.704;6.398;2023-05-29T01:56:14;8.70;99.90
54898;DHT22;40800;52.704;6.398;2023-05-29T01:58:40;8.70;99.90
54898;DHT22;40800;52.704;6.398;2023-05-29T02:01:07;8.70;99.90
54898;DHT22;40800;52.704;6.398;2023-05-29T02:03:33;8.70;99.90
54898;DHT22;40800;52.704;6.398;2023-05-29T02:05:59;8.70;99.90
54898;DHT22;40800;52.704;6.398;2023-05-29T02:08:26;8.60;99.90
54898;DHT22;40800;52.704;6.398;2023-05-29T02:10:52;8.60;99.90
54898;DHT22;40800;52.704;6.398;2023-05-29T02:13:17;8.60;99.90
54898;DHT22;40800;52.704;6.398;2023-05-29T02:15:43;8.50;99.90
54898;DHT22;40800;52.704;6.398;2023-05-29T02:18:12;8.50;1.00
54898;DHT22;40800;52.704;6.398;2023-05-29T02:20:38;8.50;1.00
54898;DHT22;40800;52.704;6.398;2023-05-29T02:23:04;8.50;1.00
54898;DHT22;40800;52.704;6.398;2023-05-29T02:25:30;8.40;1.00
54898;DHT22;40800;52.704;6.398;2023-05-29T02:27:55;8.50;1.00
54898;DHT22;40800;52.704;6.398;2023-05-29T02:30:21;8.40;1.00
54898;DHT22;40800;52.704;6.398;2023-05-29T02:32:46;8.50;58.70
54898;DHT22;40800;52.704;6.398;2023-05-29T02:35:12;8.50;65.10
54898;DHT22;40800;52.704;6.398;2023-05-29T02:37:41;8.50;54.20
54898;DHT22;40800;52.704;6.398;2023-05-29T02:40:07;8.40;45.70
54898;DHT22;40800;52.704;6.398;2023-05-29T02:42:36;8.40;99.90
54898;DHT22;40800;52.704;6.398;2023-05-29T02:45:02;8.40;99.70
54898;DHT22;40800;52.704;6.398;2023-05-29T02:47:27;8.40;92.20
54898;DHT22;40800;52.704;6.398;2023-05-29T02:49:53;8.40;99.90
54898;DHT22;40800;52.704;6.398;2023-05-29T02:52:18;8.30;99.90
54898;DHT22;40800;52.704;6.398;2023-05-29T02:54:44;8.30;99.90
54898;DHT22;40800;52.704;6.398;2023-05-29T02:57:10;8.30;99.90
54898;DHT22;40800;52.704;6.398;2023-05-29T02:59:35;8.30;99.90
54898;DHT22;40800;52.704;6.398;2023-05-29T03:02:01;8.30;99.90
54898;DHT22;40800;52.704;6.398;2023-05-29T03:04:27;8.20;99.90
54898;DHT22;40800;52.704;6.398;2023-05-29T03:06:53;8.10;99.90
54898;DHT22;40800;52.704;6.398;2023-05-29T03:09:20;8.20;99.90
54898;DHT22;40800;52.704;6.398;2023-05-29T03:11:45;8.20;99.90
54898;DHT22;40800;52.704;6.398;2023-05-29T03:14:13;8.20;99.90
54898;DHT22;40800;52.704;6.398;2023-05-29T03:16:39;8.20;99.90
54898;DHT22;40800;52.704;6.398;2023-05-29T03:19:06;8.20;99.90
54898;DHT22;40800;52.704;6.398;2023-05-29T03:21:33;8.20;99.90
54898;DHT22;40800;52.704;6.398;2023-05-29T03:23:58;8.30;99.90
54898;DHT22;40800;52.704;6.398;2023-05-29T03:26:24;8.20;99.90
54898;DHT22;40800;52.704;6.398;2023-05-29T03:28:51;8.20;99.90
54898;DHT22;40800;52.704;6.398;2023-05-29T03:31:16;8.20;99.90
54898;DHT22;40800;52.704;6.398;2023-05-29T03:33:42;8.10;99.90
54898;DHT22;40800;52.704;6.398;2023-05-29T03:36:08;8.20;1.00
54898;DHT22;40800;52.704;6.398;2023-05-29T03:38:33;8.20;1.00
54898;DHT22;40800;52.704;6.398;2023-05-29T03:40:59;8.10;1.00
54898;DHT22;40800;52.704;6.398;2023-05-29T03:43:25;8.20;1.00
54898;DHT22;40800;52.704;6.398;2023-05-29T03:45:50;8.10;1.00
54898;DHT22;40800;52.704;6.398;2023-05-29T03:48:16;8.20;1.00
54898;DHT22;40800;52.704;6.398;2023-05-29T03:50:42;8.10;1.00
54898;DHT22;40800;52.704;6.398;2023-05-29T03:53:07;8.10;1.00
54898;DHT22;40800;52.704;6.398;2023-05-29T03:55:33;8.20;1.00
54898;DHT22;40800;52.704;6.398;2023-05-29T03:57:58;8.10;4.10
54898;DHT22;40800;52.704;6.398;2023-05-29T04:00:24;8.20;38.70
54898;DHT22;40800;52.704;6.398;2023-05-29T04:02:49;8.20;11.10
54898;DHT22;40800;52.704;6.398;2023-05-29T04:05:15;8.10;1.00
54898;DHT22;40800;52.704;6.398;2023-05-29T04:07:41;8.00;1.00
54898;DHT22;40800;52.704;6.398;2023-05-29T04:10:07;8.10;1.00
54898;DHT22;40800;52.704;6.398;2023-05-29T04:12:33;8.10;9.20
54898;DHT22;40800;52.704;6.398;2023-05-29T04:14:59;8.20;48.30
54898;DHT22;40800;52.704;6.398;2023-05-29T04:17:25;8.10;98.10
54898;DHT22;40800;52.704;6.398;2023-05-29T04:19:51;8.20;91.10
54898;DHT22;40800;52.704;6.398;2023-05-29T04:22:17;8.10;13.80
54898;DHT22;40800;52.704;6.398;2023-05-29T04:24:42;8.00;1.00
54898;DHT22;40800;52.704;6.398;2023-05-29T04:27:09;8.00;11.20
54898;DHT22;40800;52.704;6.398;2023-05-29T04:29:41;8.00;79.60
54898;DHT22;40800;52.704;6.398;2023-05-29T04:32:08;8.00;97.80
54898;DHT22;40800;52.704;6.398;2023-05-29T04:34:35;8.00;99.90
54898;DHT22;40800;52.704;6.398;2023-05-29T04:37:05;8.00;99.90
54898;DHT22;40800;52.704;6.398;2023-05-29T04:39:31;8.10;99.90
54898;DHT22;40800;52.704;6.398;2023-05-29T04:41:57;8.00;99.90
54898;DHT22;40800;52.704;6.398;2023-05-29T04:44:24;8.00;99.90
54898;DHT22;40800;52.704;6.398;2023-05-29T04:46:51;8.10;99.90
54898;DHT22;40800;52.704;6.398;2023-05-29T04:49:17;8.00;1.00
54898;DHT22;40800;52.704;6.398;2023-05-29T04:51:43;8.20;15.20
54898;DHT22;40800;52.704;6.398;2023-05-29T04:54:10;8.20;99.90
54898;DHT22;40800;52.704;6.398;2023-05-29T04:56:36;8.10;99.90
54898;DHT22;40800;52.704;6.398;2023-05-29T04:59:02;8.20;99.90
54898;DHT22;40800;52.704;6.398;2023-05-29T05:01:28;8.30;99.90
54898;DHT22;40800;52.704;6.398;2023-05-29T05:03:54;8.30;1.00
54898;DHT22;40800;52.704;6.398;2023-05-29T05:06:23;8.30;1.00
54898;DHT22;40800;52.704;6.398;2023-05-29T05:08:51;8.40;1.00
54898;DHT22;40800;52.704;6.398;2023-05-29T05:11:21;8.40;7.60
54898;DHT22;40800;52.704;6.398;2023-05-29T05:13:47;8.60;99.90
54898;DHT22;40800;52.704;6.398;2023-05-29T05:16:12;8.50;99.90
54898;DHT22;40800;52.704;6.398;2023-05-29T05:18:38;8.60;1.00
54898;DHT22;40800;52.704;6.398;2023-05-29T05:21:04;8.70;42.10
54898;DHT22;40800;52.704;6.398;2023-05-29T05:23:31;8.60;81.40
54898;DHT22;40800;52.704;6.398;2023-05-29T05:25:57;8.70;99.90
54898;DHT22;40800;52.704;6.398;2023-05-29T05:28:22;8.90;99.90
54898;DHT22;40800;52.704;6.398;2023-05-29T05:30:48;9.00;99.90
54898;DHT22;40800;52.704;6.398;2023-05-29T05:33:13;9.10;2.00
54898;DHT22;40800;52.704;6.398;2023-05-29T05:35:39;9.10;29.40
54898;DHT22;40800;52.704;6.398;2023-05-29T05:38:05;9.20;1.00
54898;DHT22;40800;52.704;6.398;2023-05-29T05:40:31;9.40;1.00
54898;DHT22;40800;52.704;6.398;2023-05-29T05:42:57;9.50;1.00
54898;DHT22;40800;52.704;6.398;2023-05-29T05:45:22;9.60;1.00
54898;DHT22;40800;52.704;6.398;2023-05-29T05:47:48;9.70;99.90
54898;DHT22;40800;52.704;6.398;2023-05-29T05:50:13;9.90;99.90
54898;DHT22;40800;52.704;6.398;2023-05-29T05:52:39;9.90;99.90
54898;DHT22;40800;52.704;6.398;2023-05-29T05:55:05;10.00;55.10
54898;DHT22;40800;52.704;6.398;2023-05-29T05:57:31;10.20;1.00
54898;DHT22;40800;52.704;6.398;2023-05-29T05:59:58;10.30;99.90
54898;DHT22;40800;52.704;6.398;2023-05-29T06:02:24;10.50;99.90
54898;DHT22;40800;52.704;6.398;2023-05-29T06:04:50;10.50;1.00
54898;DHT22;40800;52.704;6.398;2023-05-29T06:07:15;10.60;99.90
54898;DHT22;40800;52.704;6.398;2023-05-29T06:09:41;10.70;99.90
54898;DHT22;40800;52.704;6.398;2023-05-29T06:12:07;10.70;1.00
54898;DHT22;40800;52.704;6.398;2023-05-29T06:14:34;10.80;1.00
54898;DHT22;40800;52.704;6.398;2023-05-29T06:17:00;10.90;1.00
54898;DHT22;40800;52.704;6.398;2023-05-29T06:19:26;11.00;99.90
54898;DHT22;40800;52.704;6.398;2023-05-29T06:21:51;11.10;99.90
54898;DHT22;40800;52.704;6.398;2023-05-29T06:24:17;11.20;1.00
54898;DHT22;40800;52.704;6.398;2023-05-29T06:26:42;11.40;99.90
54898;DHT22;40800;52.704;6.398;2023-05-29T06:29:08;11.50;16.00
54898;DHT22;40800;52.704;6.398;2023-05-29T06:31:34;11.60;99.90
54898;DHT22;40800;52.704;6.398;2023-05-29T06:33:59;11.60;99.90
54898;DHT22;40800;52.704;6.398;2023-05-29T06:36:25;11.80;99.90
54898;DHT22;40800;52.704;6.398;2023-05-29T06:38:51;11.90;92.00
54898;DHT22;40800;52.704;6.398;2023-05-29T06:41:17;12.00;16.30
54898;DHT22;40800;52.704;6.398;2023-05-29T06:43:43;12.10;1.00
54898;DHT22;40800;52.704;6.398;2023-05-29T06:46:09;12.20;24.10
54898;DHT22;40800;52.704;6.398;2023-05-29T06:48:35;12.40;1.00
54898;DHT22;40800;52.704;6.398;2023-05-29T06:51:01;12.40;1.00
54898;DHT22;40800;52.704;6.398;2023-05-29T06:53:35;12.50;99.90
54898;DHT22;40800;52.704;6.398;2023-05-29T06:56:01;12.70;1.00
54898;DHT22;40800;52.704;6.398;2023-05-29T06:58:27;12.90;99.90
54898;DHT22;40800;52.704;6.398;2023-05-29T07:00:52;13.10;99.90
54898;DHT22;40800;52.704;6.398;2023-05-29T07:03:18;13.20;99.90
54898;DHT22;40800;52.704;6.398;2023-05-29T07:05:43;13.30;1.00
54898;DHT22;40800;52.704;6.398;2023-05-29T07:08:09;13.40;1.00
54898;DHT22;40800;52.704;6.398;2023-05-29T07:10:35;13.50;1.00
54898;DHT22;40800;52.704;6.398;2023-05-29T07:13:00;13.60;1.00
54898;DHT22;40800;52.704;6.398;2023-05-29T07:15:26;13.60;1.00
54898;DHT22;40800;52.704;6.398;2023-05-29T07:17:51;13.80;99.90
54898;DHT22;40800;52.704;6.398;2023-05-29T07:20:17;14.00;99.90
54898;DHT22;40800;52.704;6.398;2023-05-29T07:22:45;14.00;99.90
54898;DHT22;40800;52.704;6.398;2023-05-29T07:25:11;14.10;99.90
54898;DHT22;40800;52.704;6.398;2023-05-29T07:27:36;14.10;99.90
54898;DHT22;40800;52.704;6.398;2023-05-29T07:30:03;14.20;99.90
54898;DHT22;40800;52.704;6.398;2023-05-29T07:32:29;14.30;1.00
54898;DHT22;40800;52.704;6.398;2023-05-29T07:34:56;14.30;99.90
54898;DHT22;40800;52.704;6.398;2023-05-29T07:37:21;14.30;99.90
54898;DHT22;40800;52.704;6.398;2023-05-29T07:39:47;14.40;99.90
54898;DHT22;40800;52.704;6.398;2023-05-29T07:42:12;14.50;99.90
54898;DHT22;40800;52.704;6.398;2023-05-29T07:44:38;14.60;99.90
54898;DHT22;40800;52.704;6.398;2023-05-29T07:47:04;14.70;99.90
54898;DHT22;40800;52.704;6.398;2023-05-29T07:49:29;14.70;99.90
54898;DHT22;40800;52.704;6.398;2023-05-29T07:51:55;14.80;99.90
54898;DHT22;40800;52.704;6.398;2023-05-29T07:54:21;14.80;99.90
54898;DHT22;40800;52.704;6.398;2023-05-29T07:56:47;15.10;99.90
54898;DHT22;40800;52.704;6.398;2023-05-29T07:59:13;15.00;99.90
54898;DHT22;40800;52.704;6.398;2023-05-29T08:01:38;15.20;99.90
54898;DHT22;40800;52.704;6.398;2023-05-29T08:04:04;15.40;99.90
54898;DHT22;40800;52.704;6.398;2023-05-29T08:06:30;15.60;99.90
54898;DHT22;40800;52.704;6.398;2023-05-29T08:08:58;15.60;99.90
54898;DHT22;40800;52.704;6.398;2023-05-29T08:11:24;15.70;99.90
54898;DHT22;40800;52.704;6.398;2023-05-29T08:13:50;15.60;99.90
54898;DHT22;40800;52.704;6.398;2023-05-29T08:16:16;15.70;99.90
54898;DHT22;40800;52.704;6.398;2023-05-29T08:18:42;15.90;94.20
54898;DHT22;40800;52.704;6.398;2023-05-29T08:21:08;16.00;63.60
54898;DHT22;40800;52.704;6.398;2023-05-29T08:23:34;16.00;59.40
54898;DHT22;40800;52.704;6.398;2023-05-29T08:26:01;16.10;24.10
54898;DHT22;40800;52.704;6.398;2023-05-29T08:28:28;16.20;15.00
54898;DHT22;40800;52.704;6.398;2023-05-29T08:30:54;16.40;1.00
54898;DHT22;40800;52.704;6.398;2023-05-29T08:33:19;16.50;1.00
54898;DHT22;40800;52.704;6.398;2023-05-29T08:35:45;16.70;1.00
54898;DHT22;40800;52.704;6.398;2023-05-29T08:38:11;16.80;1.00
54898;DHT22;40800;52.704;6.398;2023-05-29T08:40:36;17.10;1.00
54898;DHT22;40800;52.704;6.398;2023-05-29T08:43:22;17.00;1.00
54898;DHT22;40800;52.704;6.398;2023-05-29T08:45:53;17.30;1.00
54898;DHT22;40800;52.704;6.398;2023-05-29T08:48:20;17.50;1.00
54898;DHT22;40800;52.704;6.398;2023-05-29T08:50:48;17.60;1.00
54898;DHT22;40800;52.704;6.398;2023-05-29T08:53:14;17.90;1.00
54898;DHT22;40800;52.704;6.398;2023-05-29T08:55:40;18.00;99.90
54898;DHT22;40800;52.704;6.398;2023-05-29T08:58:06;18.10;99.90
54898;DHT22;40800;52.704;6.398;2023-05-29T09:00:32;18.10;99.90
54898;DHT22;40800;52.704;6.398;2023-05-29T09:02:58;18.20;99.90
54898;DHT22;40800;52.704;6.398;2023-05-29T09:05:25;18.30;99.90
54898;DHT22;40800;52.704;6.398;2023-05-29T09:07:53;18.40;99.90
54898;DHT22;40800;52.704;6.398;2023-05-29T09:10:19;18.50;99.90
54898;DHT22;40800;52.704;6.398;2023-05-29T09:12:47;18.60;99.90
54898;DHT22;40800;52.704;6.398;2023-05-29T09:17:55;18.90;99.90
54898;DHT22;40800;52.704;6.398;2023-05-29T09:20:23;19.00;99.90
54898;DHT22;40800;52.704;6.398;2023-05-29T09:23:00;19.00;99.90
54898;DHT22;40800;52.704;6.398;2023-05-29T09:25:30;19.00;99.90
54898;DHT22;40800;52.704;6.398;2023-05-29T09:28:02;19.00;99.90
54898;DHT22;40800;52.704;6.398;2023-05-29T09:30:37;19.00;99.90
54898;DHT22;40800;52.704;6.398;2023-05-29T09:33:04;19.10;99.90
54898;DHT22;40800;52.704;6.398;2023-05-29T09:35:35;19.00;99.90
54898;DHT22;40800;52.704;6.398;2023-05-29T09:38:01;19.10;99.90
54898;DHT22;40800;52.704;6.398;2023-05-29T09:40:29;19.10;99.90
54898;DHT22;40800;52.704;6.398;2023-05-29T09:42:55;19.10;99.90
54898;DHT22;40800;52.704;6.398;2023-05-29T09:45:21;19.30;99.90
54898;DHT22;40800;52.704;6.398;2023-05-29T09:47:50;19.50;99.90
54898;DHT22;40800;52.704;6.398;2023-05-29T09:50:19;19.60;99.90
54898;DHT22;40800;52.704;6.398;2023-05-29T09:52:48;19.60;99.90
54898;DHT22;40800;52.704;6.398;2023-05-29T09:55:20;19.80;99.90
54898;DHT22;40800;52.704;6.398;2023-05-29T09:57:47;20.10;99.90
54898;DHT22;40800;52.704;6.398;2023-05-29T10:00:16;20.20;99.90
54898;DHT22;40800;52.704;6.398;2023-05-29T10:02:42;20.30;99.90
54898;DHT22;40800;52.704;6.398;2023-05-29T10:05:08;20.40;99.90
54898;DHT22;40800;52.704;6.398;2023-05-29T10:07:36;20.40;99.90
54898;DHT22;40800;52.704;6.398;2023-05-29T10:10:05;20.40;99.90
54898;DHT22;40800;52.704;6.398;2023-05-29T10:12:36;20.40;99.90
54898;DHT22;40800;52.704;6.398;2023-05-29T10:15:06;20.20;99.90
54898;DHT22;40800;52.704;6.398;2023-05-29T10:17:36;20.30;99.90
54898;DHT22;40800;52.704;6.398;2023-05-29T10:20:06;20.30;99.90
54898;DHT22;40800;52.704;6.398;2023-05-29T10:22:36;20.20;99.90
54898;DHT22;40800;52.704;6.398;2023-05-29T10:25:05;20.20;99.90
54898;DHT22;40800;52.704;6.398;2023-05-29T10:27:32;20.40;99.90
54898;DHT22;40800;52.704;6.398;2023-05-29T10:30:34;20.60;99.90
54898;DHT22;40800;52.704;6.398;2023-05-29T10:38:30;21.20;99.90
54898;DHT22;40800;52.704;6.398;2023-05-29T10:40:58;21.40;99.90
54898;DHT22;40800;52.704;6.398;2023-05-29T10:43:42;21.60;99.90
54898;DHT22;40800;52.704;6.398;2023-05-29T10:46:09;21.80;99.90
54898;DHT22;40800;52.704;6.398;2023-05-29T10:48:39;22.10;99.90
54898;DHT22;40800;52.704;6.398;2023-05-29T10:51:06;22.30;99.90
54898;DHT22;40800;52.704;6.398;2023-05-29T10:53:33;22.30;99.90
54898;DHT22;40800;52.704;6.398;2023-05-29T10:55:59;22.30;99.90
54898;DHT22;40800;52.704;6.398;2023-05-29T10:58:27;22.20;99.90
54898;DHT22;40800;52.704;6.398;2023-05-29T11:00:55;22.10;99.90
54898;DHT22;40800;52.704;6.398;2023-05-29T11:03:24;22.10;99.90
54898;DHT22;40800;52.704;6.398;2023-05-29T11:08:35;22.50;99.90
54898;DHT22;40800;52.704;6.398;2023-05-29T11:11:01;22.60;99.90
54898;DHT22;40800;52.704;6.398;2023-05-29T11:13:35;22.70;99.90
54898;DHT22;40800;52.704;6.398;2023-05-29T11:16:11;22.50;99.90
54898;DHT22;40800;52.704;6.398;2023-05-29T11:18:45;22.70;99.90
54898;DHT22;40800;52.704;6.398;2023-05-29T11:24:07;23.00;99.90
54898;DHT22;40800;52.704;6.398;2023-05-29T11:26:33;23.00;99.90
54898;DHT22;40800;52.704;6.398;2023-05-29T11:29:04;22.90;99.90
54898;DHT22;40800;52.704;6.398;2023-05-29T11:31:33;23.00;99.90
54898;DHT22;40800;52.704;6.398;2023-05-29T11:34:01;23.00;99.90
54898;DHT22;40800;52.704;6.398;2023-05-29T11:36:30;23.10;99.90
54898;DHT22;40800;52.704;6.398;2023-05-29T11:38:56;23.40;99.90
54898;DHT22;40800;52.704;6.398;2023-05-29T11:41:22;23.60;99.90
54898;DHT22;40800;52.704;6.398;2023-05-29T11:44:01;23.70;99.90
54898;DHT22;40800;52.704;6.398;2023-05-29T11:46:28;23.90;99.90
54898;DHT22;40800;52.704;6.398;2023-05-29T11:48:58;24.10;99.90
54898;DHT22;40800;52.704;6.398;2023-05-29T11:51:24;24.40;99.90
54898;DHT22;40800;52.704;6.398;2023-05-29T11:53:50;24.70;99.90
54898;DHT22;40800;52.704;6.398;2023-05-29T11:56:18;24.70;99.90
54898;DHT22;40800;52.704;6.398;2023-05-29T11:58:45;24.80;99.90
54898;DHT22;40800;52.704;6.398;2023-05-29T12:01:11;24.70;99.90
54898;DHT22;40800;52.704;6.398;2023-05-29T12:03:42;24.80;99.90
54898;DHT22;40800;52.704;6.398;2023-05-29T12:06:11;25.00;99.90
54898;DHT22;40800;52.704;6.398;2023-05-29T12:08:38;25.10;99.90
54898;DHT22;40800;52.704;6.398;2023-05-29T12:11:04;25.30;99.90
54898;DHT22;40800;52.704;6.398;2023-05-29T12:13:30;25.40;99.90
54898;DHT22;40800;52.704;6.398;2023-05-29T12:16:04;25.40;99.90
54898;DHT22;40800;52.704;6.398;2023-05-29T12:18:30;25.10;99.90
54898;DHT22;40800;52.704;6.398;2023-05-29T12:21:03;24.90;99.90
54898;DHT22;40800;52.704;6.398;2023-05-29T12:23:29;24.70;99.90
54898;DHT22;40800;52.704;6.398;2023-05-29T12:25:56;24.70;99.90
54898;DHT22;40800;52.704;6.398;2023-05-29T12:28:21;24.60;99.90
54898;DHT22;40800;52.704;6.398;2023-05-29T12:30:48;24.50;99.90
54898;DHT22;40800;52.704;6.398;2023-05-29T12:33:32;24.40;99.90
54898;DHT22;40800;52.704;6.398;2023-05-29T12:36:02;24.30;99.90
54898;DHT22;40800;52.704;6.398;2023-05-29T12:38:28;24.10;99.90
54898;DHT22;40800;52.704;6.398;2023-05-29T12:40:53;24.10;99.90
54898;DHT22;40800;52.704;6.398;2023-05-29T12:43:19;24.10;99.90
54898;DHT22;40800;52.704;6.398;2023-05-29T12:45:45;24.10;99.90
54898;DHT22;40800;52.704;6.398;2023-05-29T12:48:11;24.20;99.90
54898;DHT22;40800;52.704;6.398;2023-05-29T12:50:40;24.60;99.90
54898;DHT22;40800;52.704;6.398;2023-05-29T12:53:11;25.00;99.90
54898;DHT22;40800;52.704;6.398;2023-05-29T12:55:42;25.30;99.90
54898;DHT22;40800;52.704;6.398;2023-05-29T12:58:16;25.50;99.90
54898;DHT22;40800;52.704;6.398;2023-05-29T13:00:43;25.80;99.90
54898;DHT22;40800;52.704;6.398;2023-05-29T13:03:09;25.90;99.90
54898;DHT22;40800;52.704;6.398;2023-05-29T13:05:36;26.30;99.90
54898;DHT22;40800;52.704;6.398;2023-05-29T13:08:02;26.50;99.90
54898;DHT22;40800;52.704;6.398;2023-05-29T13:10:30;26.80;99.90
54898;DHT22;40800;52.704;6.398;2023-05-29T13:12:55;27.10;99.90
54898;DHT22;40800;52.704;6.398;2023-05-29T13:15:24;27.30;99.90
54898;DHT22;40800;52.704;6.398;2023-05-29T13:17:51;27.60;99.90
54898;DHT22;40800;52.704;6.398;2023-05-29T13:20:17;27.70;99.90
54898;DHT22;40800;52.704;6.398;2023-05-29T13:22:44;27.80;99.90
54898;DHT22;40800;52.704;6.398;2023-05-29T13:25:12;27.70;99.90
54898;DHT22;40800;52.704;6.398;2023-05-29T13:27:40;27.70;99.90
54898;DHT22;40800;52.704;6.398;2023-05-29T13:30:08;27.60;99.90
54898;DHT22;40800;52.704;6.398;2023-05-29T13:32:34;27.70;99.90
54898;DHT22;40800;52.704;6.398;2023-05-29T13:35:00;27.80;99.90
54898;DHT22;40800;52.704;6.398;2023-05-29T13:37:25;27.90;99.90
54898;DHT22;40800;52.704;6.398;2023-05-29T13:39:53;27.90;99.90
54898;DHT22;40800;52.704;6.398;2023-05-29T13:42:19;27.60;99.90
54898;DHT22;40800;52.704;6.398;2023-05-29T13:44:49;27.40;99.90
54898;DHT22;40800;52.704;6.398;2023-05-29T13:47:15;27.30;99.90
54898;DHT22;40800;52.704;6.398;2023-05-29T13:49:41;27.40;99.90
54898;DHT22;40800;52.704;6.398;2023-05-29T13:52:06;27.40;99.90
54898;DHT22;40800;52.704;6.398;2023-05-29T13:54:32;27.30;99.90
54898;DHT22;40800;52.704;6.398;2023-05-29T13:57:05;27.40;99.90
54898;DHT22;40800;52.704;6.398;2023-05-29T13:59:32;27.50;99.90
54898;DHT22;40800;52.704;6.398;2023-05-29T14:01:58;27.90;99.90
54898;DHT22;40800;52.704;6.398;2023-05-29T14:04:24;28.00;99.90
54898;DHT22;40800;52.704;6.398;2023-05-29T14:06:51;28.00;99.90
54898;DHT22;40800;52.704;6.398;2023-05-29T14:09:17;27.80;99.90
54898;DHT22;40800;52.704;6.398;2023-05-29T14:11:47;27.80;99.90
54898;DHT22;40800;52.704;6.398;2023-05-29T14:14:13;27.90;99.90
54898;DHT22;40800;52.704;6.398;2023-05-29T14:16:38;28.20;99.90
54898;DHT22;40800;52.704;6.398;2023-05-29T14:19:04;28.70;99.90
54898;DHT22;40800;52.704;6.398;2023-05-29T14:21:30;29.10;99.90
54898;DHT22;40800;52.704;6.398;2023-05-29T14:23:55;29.20;99.90
54898;DHT22;40800;52.704;6.398;2023-05-29T14:26:21;29.10;99.90
54898;DHT22;40800;52.704;6.398;2023-05-29T14:28:46;29.20;99.90
54898;DHT22;40800;52.704;6.398;2023-05-29T14:31:12;29.40;99.90
54898;DHT22;40800;52.704;6.398;2023-05-29T14:33:38;29.40;99.90
54898;DHT22;40800;52.704;6.398;2023-05-29T14:36:03;29.50;99.90
54898;DHT22;40800;52.704;6.398;2023-05-29T14:38:29;29.40;99.90
54898;DHT22;40800;52.704;6.398;2023-05-29T14:40:55;29.40;99.90
54898;DHT22;40800;52.704;6.398;2023-05-29T14:43:20;29.20;99.90
54898;DHT22;40800;52.704;6.398;2023-05-29T14:45:46;29.00;99.90
54898;DHT22;40800;52.704;6.398;2023-05-29T14:48:12;29.10;99.90
54898;DHT22;40800;52.704;6.398;2023-05-29T14:50:37;29.10;99.90
54898;DHT22;40800;52.704;6.398;2023-05-29T14:53:03;29.00;99.90
54898;DHT22;40800;52.704;6.398;2023-05-29T14:55:29;29.00;99.90
54898;DHT22;40800;52.704;6.398;2023-05-29T14:57:57;29.10;99.90
54898;DHT22;40800;52.704;6.398;2023-05-29T15:00:23;29.00;99.90
54898;DHT22;40800;52.704;6.398;2023-05-29T15:02:48;29.00;99.90
54898;DHT22;40800;52.704;6.398;2023-05-29T15:05:14;29.10;99.90
54898;DHT22;40800;52.704;6.398;2023-05-29T15:07:40;29.30;99.90
54898;DHT22;40800;52.704;6.398;2023-05-29T15:10:05;29.40;99.90
54898;DHT22;40800;52.704;6.398;2023-05-29T15:12:32;29.50;99.90
54898;DHT22;40800;52.704;6.398;2023-05-29T15:14:58;29.30;99.90
54898;DHT22;40800;52.704;6.398;2023-05-29T15:17:23;29.20;99.90
54898;DHT22;40800;52.704;6.398;2023-05-29T15:19:49;29.10;99.90
54898;DHT22;40800;52.704;6.398;2023-05-29T15:22:15;29.10;99.90
54898;DHT22;40800;52.704;6.398;2023-05-29T15:24:40;29.20;99.90
54898;DHT22;40800;52.704;6.398;2023-05-29T15:27:07;29.20;99.90
54898;DHT22;40800;52.704;6.398;2023-05-29T15:29:34;29.30;99.90
54898;DHT22;40800;52.704;6.398;2023-05-29T15:32:01;29.20;99.90
54898;DHT22;40800;52.704;6.398;2023-05-29T15:34:26;29.00;99.90
54898;DHT22;40800;52.704;6.398;2023-05-29T15:36:52;28.80;99.90
54898;DHT22;40800;52.704;6.398;2023-05-29T15:39:18;28.70;99.90
54898;DHT22;40800;52.704;6.398;2023-05-29T15:41:43;28.80;99.90
54898;DHT22;40800;52.704;6.398;2023-05-29T15:44:09;28.60;99.90
54898;DHT22;40800;52.704;6.398;2023-05-29T15:46:35;28.30;99.90
54898;DHT22;40800;52.704;6.398;2023-05-29T15:49:00;28.20;99.90
54898;DHT22;40800;52.704;6.398;2023-05-29T15:51:26;27.70;99.90
54898;DHT22;40800;52.704;6.398;2023-05-29T15:53:53;27.50;99.90
54898;DHT22;40800;52.704;6.398;2023-05-29T15:56:19;27.60;99.90
54898;DHT22;40800;52.704;6.398;2023-05-29T15:58:50;27.30;99.90